Time;durP1;ratioP1;P1;durP2;ratioP2;P2;SDS_P1;SDS_P2;PMS_P1;PMS_P2;Temp;Humidity;BMP_temperature;BMP_pressure;BME280_temperature;BME280_humidity;BME280_pressure;Samples;Min_cycle;Max_cycle;Signal;HPM_P1;HPM_P2
2022/01/31 00:01:53;;;;;;;6.80;0.90;;;;;;;5.90;100.00;101135.47;5030842;28;20029;-46
2022/01/31 00:04:19;;;;;;;1.70;0.10;;;;;;;5.98;100.00;101132.97;5031245;28;20061;-48
2022/01/31 00:06:48;;;;;;;2.42;0.63;;;;;;;6.02;100.00;101136.16;5029522;28;20026;-49
2022/01/31 00:09:16;;;;;;;2.55;0.45;;;;;;;6.05;100.00;101162.19;5029675;28;20410;-53
2022/01/31 00:11:44;;;;;;;2.13;0.13;;;;;;;6.20;100.00;101136.22;5034234;28;20033;-49
2022/01/31 00:14:20;;;;;;;0.75;0.47;;;;;;;6.10;100.00;101138.88;5028791;28;20044;-46
2022/01/31 00:16:46;;;;;;;0.55;0.08;;;;;;;6.01;100.00;101155.53;5040154;28;20581;-50
2022/01/31 00:19:11;;;;;;;3.95;0.75;;;;;;;5.90;100.00;101154.69;5045122;28;20060;-54
2022/01/31 00:21:36;;;;;;;4.22;0.10;;;;;;;6.12;100.00;101152.72;5041557;28;20119;-50
2022/01/31 00:24:02;;;;;;;1.35;0.70;;;;;;;6.23;100.00;101160.44;5020601;28;20057;-51
2022/01/31 00:26:27;;;;;;;3.13;0.30;;;;;;;6.23;100.00;101155.16;5029005;28;20466;-58
2022/01/31 00:28:52;;;;;;;2.42;0.17;;;;;;;6.25;100.00;101155.84;5039679;28;20029;-46
2022/01/31 00:31:18;;;;;;;0.77;0.10;;;;;;;6.30;100.00;101136.97;5046424;28;20143;-48
2022/01/31 00:33:44;;;;;;;0.40;0.10;;;;;;;6.29;100.00;101153.75;5040068;28;20033;-55
2022/01/31 00:36:09;;;;;;;2.75;0.15;;;;;;;6.19;100.00;101151.16;5042674;28;20029;-54
2022/01/31 00:38:34;;;;;;;3.65;0.55;;;;;;;6.14;100.00;101158.66;5042045;28;20029;-54
2022/01/31 00:41:00;;;;;;;1.35;0.00;;;;;;;6.06;100.00;101138.31;5036090;28;20072;-49
2022/01/31 00:43:25;;;;;;;0.70;0.57;;;;;;;5.98;100.00;101126.88;5031702;28;20036;-50
2022/01/31 00:46:03;;;;;;;2.15;0.08;;;;;;;5.95;100.00;101150.84;5042377;28;20111;-51
2022/01/31 00:48:33;;;;;;;6.75;0.10;;;;;;;5.85;100.00;101156.94;5040323;28;20490;-48
2022/01/31 00:50:58;;;;;;;0.45;0.00;;;;;;;5.97;100.00;101157.63;5039577;28;20033;-50
2022/01/31 00:53:24;;;;;;;9.48;0.25;;;;;;;6.09;100.00;101147.72;5043323;28;20139;-49
2022/01/31 00:55:49;;;;;;;10.13;0.45;;;;;;;6.18;100.00;101146.88;5060970;28;20032;-50
2022/01/31 00:58:15;;;;;;;5.95;1.67;;;;;;;6.17;100.00;101158.38;5046563;28;20033;-50
2022/01/31 01:00:40;;;;;;;2.08;0.00;;;;;;;6.24;100.00;101158.63;5039397;28;20108;-52
2022/01/31 01:03:05;;;;;;;3.92;0.20;;;;;;;6.23;100.00;101159.59;5044746;28;20123;-50
2022/01/31 01:05:31;;;;;;;6.55;0.77;;;;;;;6.16;100.00;101161.97;5040246;28;20486;-49
2022/01/31 01:07:56;;;;;;;0.10;0.08;;;;;;;6.12;100.00;101163.25;5042773;28;20033;-49
2022/01/31 01:10:22;;;;;;;9.63;0.57;;;;;;;6.21;100.00;101162.38;5033472;28;20104;-46
2022/01/31 01:12:47;;;;;;;4.13;0.47;;;;;;;6.27;100.00;101151.28;5040590;28;20419;-50
2022/01/31 01:15:14;;;;;;;8.90;1.55;;;;;;;6.15;100.00;101133.19;5039583;28;20029;-49
2022/01/31 01:17:40;;;;;;;1.02;0.03;;;;;;;6.05;100.00;101163.00;5039721;28;20196;-51
2022/01/31 01:20:07;;;;;;;3.83;1.38;;;;;;;5.93;100.00;101150.94;5040970;28;20287;-48
2022/01/31 01:22:33;;;;;;;4.18;0.43;;;;;;;5.77;100.00;101159.47;5039536;28;20355;-51
2022/01/31 01:25:01;;;;;;;1.10;0.00;;;;;;;5.82;100.00;101162.50;5036804;28;20036;-52
2022/01/31 01:27:26;;;;;;;6.22;0.85;;;;;;;5.78;100.00;101161.13;5041643;28;20212;-50
2022/01/31 01:29:52;;;;;;;3.30;0.60;;;;;;;5.71;100.00;101156.59;5039728;28;20037;-52
2022/01/31 01:32:17;;;;;;;3.53;0.32;;;;;;;5.60;100.00;101163.66;5036479;28;20486;-50
2022/01/31 01:34:44;;;;;;;1.95;0.08;;;;;;;5.55;100.00;101162.41;5032474;28;20120;-47
2022/01/31 01:37:09;;;;;;;0.82;0.10;;;;;;;5.45;100.00;101154.56;5037179;28;20033;-48
2022/01/31 01:39:35;;;;;;;3.67;0.30;;;;;;;5.49;100.00;101166.44;5039421;28;20333;-51
2022/01/31 01:42:01;;;;;;;7.13;0.10;;;;;;;5.44;100.00;101158.97;5039624;28;20539;-49
2022/01/31 01:44:46;;;;;;;4.05;0.43;;;;;;;5.30;100.00;101154.16;5035566;28;20045;-50
2022/01/31 01:47:18;;;;;;;2.42;0.32;;;;;;;5.34;100.00;101141.53;5037245;28;20036;-50
2022/01/31 01:49:45;;;;;;;1.35;0.20;;;;;;;5.26;100.00;101155.41;5036483;28;20047;-48
2022/01/31 01:52:11;;;;;;;3.83;0.73;;;;;;;5.15;100.00;101151.13;5034815;28;20025;-47
2022/01/31 01:54:36;;;;;;;15.82;0.65;;;;;;;5.19;100.00;101170.09;5038840;28;20215;-49
2022/01/31 01:57:03;;;;;;;4.45;0.55;;;;;;;5.20;100.00;101156.78;5044569;28;20022;-50
2022/01/31 01:59:29;;;;;;;6.43;0.65;;;;;;;5.23;100.00;101150.44;5037886;28;20448;-52
2022/01/31 02:01:55;;;;;;;2.97;0.80;;;;;;;5.22;100.00;101149.59;5033965;28;20037;-50
2022/01/31 02:04:20;;;;;;;6.55;0.75;;;;;;;5.16;100.00;101159.84;5050547;28;20464;-47
2022/01/31 02:06:45;;;;;;;4.00;0.63;;;;;;;5.18;100.00;101168.41;5050309;28;20024;-49
2022/01/31 02:09:11;;;;;;;1.65;0.40;;;;;;;5.21;100.00;101174.25;5037620;28;20021;-51
2022/01/31 02:11:36;;;;;;;5.78;0.85;;;;;;;5.14;100.00;101167.88;5039428;28;20390;-47
2022/01/31 02:14:02;;;;;;;0.85;0.25;;;;;;;5.16;100.00;101167.72;5053333;28;20442;-47
2022/01/31 02:16:28;;;;;;;2.60;0.10;;;;;;;5.28;100.00;101163.97;5049511;28;20041;-55
2022/01/31 02:18:54;;;;;;;1.05;0.32;;;;;;;5.37;100.00;101157.03;5042206;28;20033;-51
2022/01/31 02:21:20;;;;;;;3.15;0.47;;;;;;;5.32;100.00;101156.63;5044495;28;20041;-47
2022/01/31 02:23:47;;;;;;;7.05;1.13;;;;;;;5.25;100.00;101177.41;5034477;28;20498;-51
2022/01/31 02:26:12;;;;;;;5.15;0.47;;;;;;;5.23;100.00;101174.91;5039419;28;20040;-50
2022/01/31 02:28:41;;;;;;;4.55;1.27;;;;;;;5.22;100.00;101175.06;5038855;28;20041;-53
2022/01/31 02:31:07;;;;;;;1.17;0.63;;;;;;;5.17;100.00;101178.09;5049321;28;20529;-52
2022/01/31 02:33:33;;;;;;;3.53;0.10;;;;;;;5.16;100.00;101165.09;5040076;28;20051;-49
2022/01/31 02:36:00;;;;;;;10.00;1.95;;;;;;;5.10;100.00;101174.38;5041944;28;20409;-52
2022/01/31 02:38:27;;;;;;;2.00;0.20;;;;;;;5.11;100.00;101183.94;5041469;28;20082;-53
2022/01/31 02:40:53;;;;;;;3.97;0.17;;;;;;;5.05;100.00;101176.56;5038288;28;20108;-47
2022/01/31 02:43:24;;;;;;;3.83;0.95;;;;;;;4.98;100.00;101175.47;5049568;28;20035;-49
2022/01/31 02:45:50;;;;;;;7.35;0.20;;;;;;;5.03;100.00;101181.13;5045363;28;20037;-51
2022/01/31 02:48:19;;;;;;;8.85;1.75;;;;;;;5.07;100.00;101161.50;5049199;28;20452;-50
2022/01/31 02:50:44;;;;;;;3.92;1.40;;;;;;;5.21;100.00;101165.50;5037641;28;20031;-54
2022/01/31 02:53:36;;;;;;;3.03;0.25;;;;;;;5.31;100.00;101165.50;5040807;28;20029;-48
2022/01/31 02:55:58;;;;;;;1.15;0.43;;;;;;;5.30;100.00;101161.22;5043326;28;20596;-54
2022/01/31 02:58:25;;;;;;;6.82;0.10;;;;;;;5.22;100.00;101161.94;5033864;28;20124;-51
2022/01/31 03:00:52;;;;;;;2.90;0.20;;;;;;;5.19;100.00;101155.16;5033247;28;20076;-51
2022/01/31 03:03:18;;;;;;;3.58;0.50;;;;;;;5.16;100.00;101154.56;5037925;28;20189;-49
2022/01/31 03:05:43;;;;;;;4.95;0.35;;;;;;;5.24;100.00;101137.16;5041445;28;20037;-51
2022/01/31 03:08:09;;;;;;;7.00;2.10;;;;;;;5.35;100.00;101141.41;5035073;28;20090;-50
2022/01/31 03:10:35;;;;;;;3.35;1.85;;;;;;;5.37;100.00;101131.59;5039579;28;20064;-53
2022/01/31 03:13:02;;;;;;;0.77;0.68;;;;;;;5.37;100.00;101139.50;5040173;28;20034;-50
2022/01/31 03:15:28;;;;;;;3.40;0.40;;;;;;;5.36;100.00;101126.47;5037696;28;20048;-51
2022/01/31 03:17:53;;;;;;;2.38;0.43;;;;;;;5.32;100.00;101131.19;5040645;28;20551;-57
2022/01/31 03:20:22;;;;;;;3.95;1.00;;;;;;;5.44;100.00;101142.38;5033209;28;20040;-49
2022/01/31 03:22:48;;;;;;;2.55;0.38;;;;;;;5.47;100.00;101131.56;5037106;28;20393;-48
2022/01/31 03:25:14;;;;;;;2.83;0.30;;;;;;;5.46;100.00;101120.22;5035826;28;20037;-50
2022/01/31 03:27:40;;;;;;;4.03;0.20;;;;;;;5.47;100.00;101132.41;5046607;28;20029;-51
2022/01/31 03:30:08;;;;;;;4.63;0.45;;;;;;;5.52;100.00;101108.28;5046802;28;20029;-50
2022/01/31 03:32:33;;;;;;;2.65;0.30;;;;;;;5.60;100.00;101129.47;5044464;28;20033;-51
2022/01/31 03:34:59;;;;;;;2.90;0.20;;;;;;;5.61;100.00;101130.28;5044373;28;20028;-50
2022/01/31 03:37:24;;;;;;;3.17;0.45;;;;;;;5.52;100.00;101129.31;5049109;28;20393;-49
2022/01/31 03:39:50;;;;;;;6.72;0.47;;;;;;;5.47;100.00;101114.00;5050791;28;20064;-46
2022/01/31 03:42:18;;;;;;;2.70;1.00;;;;;;;5.57;100.00;101121.03;5051370;28;20408;-52
2022/01/31 03:44:45;;;;;;;1.95;0.80;;;;;;;5.53;100.00;101119.66;5048341;28;20052;-50
2022/01/31 03:47:10;;;;;;;1.75;0.65;;;;;;;5.54;100.00;101116.06;5045306;28;20044;-46
2022/01/31 03:49:36;;;;;;;0.30;0.20;;;;;;;5.55;100.00;101110.66;5049004;28;20041;-49
2022/01/31 03:52:01;;;;;;;3.40;0.80;;;;;;;5.71;100.00;101127.66;5048842;28;20041;-50
2022/01/31 03:54:27;;;;;;;8.43;2.38;;;;;;;5.67;100.00;101133.16;5046862;28;20032;-47
2022/01/31 03:56:52;;;;;;;4.18;0.57;;;;;;;5.64;100.00;101137.91;5058623;28;20033;-48
2022/01/31 03:59:17;;;;;;;4.32;0.30;;;;;;;5.61;100.00;101125.84;5050836;28;20039;-47
2022/01/31 04:01:43;;;;;;;10.88;1.15;;;;;;;5.67;100.00;101125.28;5039762;28;20640;-51
2022/01/31 04:04:10;;;;;;;5.10;0.30;;;;;;;5.66;100.00;101122.81;5049304;28;20028;-50
2022/01/31 04:06:37;;;;;;;1.30;0.05;;;;;;;5.67;100.00;101134.97;5047587;28;20033;-51
2022/01/31 04:09:03;;;;;;;3.75;1.13;;;;;;;5.67;100.00;101138.44;5044511;28;20028;-53
2022/01/31 04:11:28;;;;;;;4.10;0.32;;;;;;;5.69;100.00;101122.50;5034956;28;20028;-49
2022/01/31 04:13:53;;;;;;;8.30;0.60;;;;;;;5.67;100.00;101133.16;5038326;28;20043;-51
2022/01/31 04:16:19;;;;;;;5.78;0.73;;;;;;;5.63;100.00;101126.56;5062323;28;20051;-57
2022/01/31 04:18:44;;;;;;;1.45;0.45;;;;;;;5.76;100.00;101131.50;5049594;28;20068;-53
2022/01/31 04:21:09;;;;;;;5.22;1.23;;;;;;;5.72;100.00;101121.41;5044173;28;20048;-51
2022/01/31 04:23:35;;;;;;;4.70;0.38;;;;;;;5.61;100.00;101128.50;5048199;28;20150;-52
2022/01/31 04:26:10;;;;;;;4.80;0.32;;;;;;;5.53;100.00;101141.53;5061783;28;20033;-53
2022/01/31 04:29:03;;;;;;;10.10;0.88;;;;;;;5.53;100.00;101145.97;5051803;28;20353;-51
2022/01/31 04:31:37;;;;;;;3.70;0.25;;;;;;;5.55;100.00;101144.84;5037724;28;20029;-52
2022/01/31 04:34:03;;;;;;;9.55;1.95;;;;;;;5.53;100.00;101151.22;5062305;28;20037;-53
2022/01/31 04:36:28;;;;;;;4.18;0.77;;;;;;;5.47;100.00;101148.19;5062954;28;20020;-57
2022/01/31 04:38:54;;;;;;;5.22;0.28;;;;;;;5.49;100.00;101155.09;5037169;28;20025;-50
2022/01/31 04:41:20;;;;;;;1.95;0.65;;;;;;;5.49;100.00;101155.91;5043506;28;20120;-50
2022/01/31 04:43:48;;;;;;;2.55;0.63;;;;;;;5.50;100.00;101169.91;5030891;28;20100;-52
2022/01/31 04:46:13;;;;;;;6.20;1.35;;;;;;;5.54;100.00;101158.97;5031289;28;20040;-50
2022/01/31 04:48:39;;;;;;;8.98;0.75;;;;;;;5.63;100.00;101157.31;5037608;28;20025;-53
2022/01/31 04:51:04;;;;;;;2.38;0.63;;;;;;;5.63;100.00;101141.50;5039105;28;20056;-54
2022/01/31 04:53:29;;;;;;;6.30;0.85;;;;;;;5.57;100.00;101139.44;5050266;28;20157;-49
2022/01/31 04:55:55;;;;;;;9.32;1.55;;;;;;;5.58;100.00;101138.47;5049184;28;20057;-51
2022/01/31 04:58:22;;;;;;;4.55;0.60;;;;;;;5.53;100.00;101136.25;5052755;28;20024;-52
2022/01/31 05:00:49;;;;;;;4.07;0.30;;;;;;;5.59;100.00;101153.28;5043089;28;20029;-51
2022/01/31 05:03:17;;;;;;;7.22;1.45;;;;;;;5.64;100.00;101145.78;5057146;28;20047;-50
2022/01/31 05:05:43;;;;;;;10.82;2.53;;;;;;;5.67;100.00;101137.59;5042403;28;20166;-54
2022/01/31 05:08:09;;;;;;;2.63;0.57;;;;;;;5.67;100.00;101158.66;5053806;28;20035;-60
2022/01/31 05:10:41;;;;;;;4.80;0.50;;;;;;;5.64;100.00;101157.13;5054386;28;20021;-50
2022/01/31 05:13:07;;;;;;;2.95;1.17;;;;;;;5.57;100.00;101177.09;5050841;28;20120;-52
2022/01/31 05:15:32;;;;;;;4.20;0.40;;;;;;;5.55;100.00;101188.72;5047504;28;20500;-49
2022/01/31 05:17:58;;;;;;;3.95;1.42;;;;;;;5.55;100.00;101196.59;5051063;28;20033;-52
2022/01/31 05:20:23;;;;;;;6.10;1.13;;;;;;;5.48;100.00;101212.16;5046268;28;20580;-52
2022/01/31 05:22:48;;;;;;;6.05;1.27;;;;;;;4.92;100.00;101274.09;5053536;28;20068;-60
2022/01/31 05:25:13;;;;;;;5.20;0.60;;;;;;;3.90;100.00;101267.97;5050671;28;20028;-55
2022/01/31 05:27:39;;;;;;;4.70;1.05;;;;;;;3.47;100.00;101253.16;5047586;28;20090;-59
2022/01/31 05:30:05;;;;;;;2.05;0.73;;;;;;;3.16;100.00;101232.06;5047954;28;20040;-50
2022/01/31 05:32:30;;;;;;;2.03;0.20;;;;;;;3.10;100.00;101271.03;5056110;28;20033;-47
2022/01/31 05:34:56;;;;;;;10.98;0.80;;;;;;;3.23;100.00;101259.44;5050538;28;20033;-48
2022/01/31 05:37:22;;;;;;;3.25;0.40;;;;;;;3.32;100.00;101286.69;5050449;28;20028;-49
2022/01/31 05:39:47;;;;;;;1.20;0.05;;;;;;;3.52;100.00;101271.97;5036422;28;20044;-50
2022/01/31 05:42:13;;;;;;;4.18;1.63;;;;;;;3.57;100.00;101254.06;5055892;28;20048;-51
2022/01/31 05:44:38;;;;;;;4.05;1.02;;;;;;;3.62;100.00;101262.41;5051555;28;20200;-52
2022/01/31 05:47:04;;;;;;;7.78;1.38;;;;;;;3.69;100.00;101279.28;5049167;28;20127;-48
2022/01/31 05:49:29;;;;;;;3.15;1.08;;;;;;;3.75;100.00;101248.28;5052940;28;20111;-52
2022/01/31 05:52:05;;;;;;;7.45;0.60;;;;;;;3.76;100.00;101256.00;5035653;28;20076;-53
2022/01/31 05:54:35;;;;;;;4.55;0.82;;;;;;;3.68;100.00;101247.94;5044027;28;20028;-50
2022/01/31 05:57:01;;;;;;;11.05;1.23;;;;;;;3.66;100.00;101253.28;5038902;28;20029;-52
2022/01/31 05:59:26;;;;;;;1.58;0.20;;;;;;;3.65;100.00;101248.19;5053408;28;20087;-56
2022/01/31 06:01:52;;;;;;;2.90;0.43;;;;;;;3.63;100.00;101250.94;5043841;28;20082;-48
2022/01/31 06:04:17;;;;;;;2.50;0.70;;;;;;;3.60;100.00;101240.69;5049636;28;20052;-47
2022/01/31 06:06:43;;;;;;;2.95;0.32;;;;;;;3.64;100.00;101268.34;5038336;28;20386;-53
2022/01/31 06:09:08;;;;;;;6.90;1.50;;;;;;;3.70;100.00;101265.22;5044853;28;20047;-51
2022/01/31 06:11:34;;;;;;;6.97;0.22;;;;;;;3.69;100.00;101260.94;5052047;28;20031;-56
2022/01/31 06:14:07;;;;;;;3.00;0.70;;;;;;;3.83;100.00;101258.94;5026854;28;20441;-54
2022/01/31 06:16:32;;;;;;;7.32;0.52;;;;;;;3.99;100.00;101261.13;5041815;28;20270;-53
2022/01/31 06:18:58;;;;;;;6.25;0.73;;;;;;;4.08;100.00;101250.69;5048312;28;20033;-52
2022/01/31 06:21:24;;;;;;;3.25;0.38;;;;;;;4.09;100.00;101249.72;5050961;28;20063;-47
2022/01/31 06:23:49;;;;;;;4.65;0.88;;;;;;;4.07;100.00;101243.75;5044737;28;20064;-47
2022/01/31 06:26:15;;;;;;;3.55;0.20;;;;;;;4.06;100.00;101264.91;5051062;28;20103;-58
2022/01/31 06:28:40;;;;;;;2.63;0.60;;;;;;;4.10;100.00;101246.13;5049168;28;20078;-54
2022/01/31 06:31:06;;;;;;;3.78;1.45;;;;;;;4.22;100.00;101253.94;5043534;28;20082;-48
2022/01/31 06:33:32;;;;;;;7.18;1.38;;;;;;;4.26;100.00;101239.56;5042112;28;20028;-52
2022/01/31 06:36:01;;;;;;;3.90;0.68;;;;;;;4.21;100.00;101253.09;5044875;28;20118;-48
2022/01/31 06:38:28;;;;;;;2.38;0.13;;;;;;;4.19;100.00;101273.41;5051397;28;20052;-48
2022/01/31 06:40:53;;;;;;;6.60;1.13;;;;;;;4.17;100.00;101283.19;5052027;28;20319;-47
2022/01/31 06:43:19;;;;;;;8.98;0.47;;;;;;;4.09;100.00;101290.88;5043492;28;20508;-50
2022/01/31 06:45:44;;;;;;;3.15;0.40;;;;;;;3.81;100.00;101313.34;5047573;28;20106;-48
2022/01/31 06:48:10;;;;;;;1.67;1.02;;;;;;;3.33;100.00;101317.22;5056949;28;20042;-51
2022/01/31 06:50:35;;;;;;;6.32;1.20;;;;;;;2.94;100.00;101339.53;5051594;28;20393;-50
2022/01/31 06:53:02;;;;;;;1.85;0.60;;;;;;;2.70;100.00;101352.78;5045628;28;20817;-51
2022/01/31 06:55:29;;;;;;;8.40;0.98;;;;;;;2.53;100.00;101349.66;5048439;28;20032;-47
2022/01/31 06:57:56;;;;;;;8.32;0.82;;;;;;;2.46;100.00;101352.88;5045126;28;20029;-53
2022/01/31 07:00:21;;;;;;;5.78;0.65;;;;;;;2.39;100.00;101345.47;5043523;28;20044;-50
2022/01/31 07:02:49;;;;;;;19.38;1.60;;;;;;;2.44;100.00;101360.00;5039438;28;20028;-53
2022/01/31 07:05:16;;;;;;;3.40;0.20;;;;;;;2.46;100.00;101364.16;5034954;28;20021;-48
2022/01/31 07:07:42;;;;;;;8.32;1.23;;;;;;;2.43;100.00;101374.88;5054208;28;20108;-52
2022/01/31 07:10:09;;;;;;;5.65;0.55;;;;;;;2.49;100.00;101378.81;5039765;28;20052;-52
2022/01/31 07:12:38;;;;;;;4.43;0.68;;;;;;;2.54;100.00;101392.38;5037179;28;20071;-54
2022/01/31 07:15:07;;;;;;;4.78;1.17;;;;;;;2.62;100.00;101398.69;5031761;28;20029;-50
2022/01/31 07:17:34;;;;;;;1.38;0.32;;;;;;;2.66;100.00;101417.66;5034690;28;20943;-53
2022/01/31 07:20:04;;;;;;;2.08;0.25;;;;;;;2.67;100.00;101449.91;5036066;28;20029;-48
2022/01/31 07:22:36;;;;;;;0.28;0.15;;;;;;;2.57;100.00;101483.78;5031136;28;20470;-59
2022/01/31 07:25:05;;;;;;;0.95;0.32;;;;;;;2.39;100.00;101426.63;5033773;28;20132;-53
2022/01/31 07:27:31;;;;;;;2.97;0.20;;;;;;;2.24;100.00;101425.13;5014909;28;20116;-50
2022/01/31 07:29:57;;;;;;;1.38;0.20;;;;;;;2.20;100.00;101408.00;5032425;28;20124;-53
2022/01/31 07:32:23;;;;;;;3.95;0.17;;;;;;;2.22;100.00;101411.34;5037767;28;20043;-52
2022/01/31 07:34:52;;;;;;;6.55;1.35;;;;;;;2.20;100.00;101421.09;5037028;28;20045;-50
2022/01/31 07:37:18;;;;;;;4.13;0.20;;;;;;;2.37;100.00;101417.22;5035635;28;20569;-50
2022/01/31 07:39:43;;;;;;;3.85;1.27;;;;;;;2.43;100.00;101431.63;5037111;28;20033;-50
2022/01/31 07:42:09;;;;;;;3.83;0.30;;;;;;;2.45;100.00;101437.56;5040258;28;20032;-49
2022/01/31 07:44:36;;;;;;;3.83;0.30;;;;;;;2.47;100.00;101433.91;5033264;28;20401;-47
2022/01/31 07:47:02;;;;;;;8.00;0.50;;;;;;;2.53;100.00;101414.25;5033866;28;20564;-51
2022/01/31 07:49:27;;;;;;;9.50;1.30;;;;;;;2.61;100.00;101438.94;5033999;28;20048;-55
2022/01/31 07:51:54;;;;;;;1.98;1.10;;;;;;;2.70;100.00;101429.53;5041590;28;20045;-51
2022/01/31 07:54:20;;;;;;;5.07;1.25;;;;;;;2.82;100.00;101443.50;5030392;28;20490;-50
2022/01/31 07:56:45;;;;;;;5.18;0.43;;;;;;;2.86;100.00;101438.84;5034206;28;20025;-47
2022/01/31 07:59:11;;;;;;;3.95;0.47;;;;;;;2.93;100.00;101446.13;5033494;28;20094;-49
2022/01/31 08:01:36;;;;;;;6.25;0.80;;;;;;;2.96;100.00;101438.03;5036698;28;20482;-60
2022/01/31 08:04:02;;;;;;;6.65;0.65;;;;;;;3.06;100.00;101438.97;5034309;28;20548;-48
2022/01/31 08:06:27;;;;;;;7.88;0.63;;;;;;;3.06;100.00;101438.97;5015275;28;20399;-47
2022/01/31 08:08:54;;;;;;;2.58;0.65;;;;;;;3.19;100.00;101422.31;5034976;28;20393;-49
2022/01/31 08:11:21;;;;;;;19.10;1.30;;;;;;;3.28;100.00;101425.06;5033693;28;20542;-46
2022/01/31 08:13:46;;;;;;;8.68;1.35;;;;;;;3.27;100.00;101423.38;5033057;28;20056;-46
2022/01/31 08:16:13;;;;;;;6.82;0.60;;;;;;;3.34;100.00;101438.63;5032054;28;20029;-48
2022/01/31 08:18:44;;;;;;;5.13;0.85;;;;;;;3.34;100.00;101454.38;5028063;28;20152;-49
2022/01/31 08:21:11;;;;;;;4.88;0.60;;;;;;;3.38;100.00;101455.78;5032736;28;20111;-50
2022/01/31 08:23:37;;;;;;;11.43;1.15;;;;;;;3.49;100.00;101456.59;5031793;28;20431;-54
2022/01/31 08:26:05;;;;;;;8.07;0.75;;;;;;;3.56;100.00;101464.81;5026448;28;20029;-52
2022/01/31 08:28:35;;;;;;;11.82;1.10;;;;;;;3.62;100.00;101456.47;5013129;28;20029;-50
2022/01/31 08:31:16;;;;;;;4.90;0.88;;;;;;;3.72;100.00;101454.78;5016959;28;20120;-50
2022/01/31 08:36:35;;;;;;;8.00;0.65;;;;;;;3.86;100.00;101442.34;5012093;28;20060;-50
2022/01/31 08:39:17;;;;;;;7.68;0.98;;;;;;;3.86;100.00;101455.47;5047130;28;20631;-47
2022/01/31 08:41:44;;;;;;;4.15;0.47;;;;;;;3.82;100.00;101456.66;5042670;28;20037;-51
2022/01/31 08:44:11;;;;;;;2.72;1.00;;;;;;;3.83;100.00;101463.59;5048871;28;20028;-52
2022/01/31 08:46:40;;;;;;;9.43;1.20;;;;;;;3.82;100.00;101446.16;5049266;28;20474;-49
2022/01/31 08:49:07;;;;;;;5.07;0.90;;;;;;;3.82;100.00;101446.16;5040185;28;20532;-47
2022/01/31 08:51:32;;;;;;;12.80;0.75;;;;;;;3.86;100.00;101444.97;5047754;28;20033;-52
2022/01/31 08:53:58;;;;;;;12.77;3.17;;;;;;;3.88;100.00;101461.44;5045023;28;20033;-55
2022/01/31 08:56:24;;;;;;;7.20;2.58;;;;;;;3.91;100.00;101429.69;5043642;28;20021;-46
2022/01/31 08:58:50;;;;;;;6.45;2.40;;;;;;;3.91;100.00;101461.19;5037589;28;20161;-50
2022/01/31 09:01:18;;;;;;;10.40;1.02;;;;;;;3.91;100.00;101467.25;5032140;28;20017;-50
2022/01/31 09:06:17;;;;;;;6.00;1.00;;;;;;;3.93;100.00;101488.97;5042194;28;20427;-48
2022/01/31 09:08:43;;;;;;;14.80;2.42;;;;;;;3.95;100.00;101480.97;5039664;28;20029;-50
2022/01/31 09:11:09;;;;;;;8.85;1.33;;;;;;;4.01;100.00;101467.34;5036454;28;21124;-52
2022/01/31 09:13:34;;;;;;;17.52;1.95;;;;;;;4.04;100.00;101476.75;5041145;28;20032;-52
2022/01/31 09:16:01;;;;;;;14.18;2.08;;;;;;;4.13;100.00;101470.75;5046700;28;20492;-49
2022/01/31 09:18:26;;;;;;;8.18;1.08;;;;;;;4.18;100.00;101473.00;5055771;28;20037;-46
2022/01/31 09:20:52;;;;;;;11.68;1.70;;;;;;;4.25;100.00;101492.56;5045482;28;20079;-47
2022/01/31 09:23:17;;;;;;;7.00;1.02;;;;;;;4.28;100.00;101485.25;5043894;28;20068;-48
2022/01/31 09:25:45;;;;;;;12.38;1.65;;;;;;;4.35;100.00;101506.59;5047127;28;20095;-50
2022/01/31 09:28:11;;;;;;;6.35;2.10;;;;;;;4.46;100.00;101482.09;5042420;28;20033;-47
2022/01/31 09:30:38;;;;;;;8.65;0.90;;;;;;;4.48;100.00;101496.75;5036819;28;20068;-48
2022/01/31 09:33:05;;;;;;;7.75;0.85;;;;;;;4.50;100.00;101488.75;5028302;28;20036;-48
2022/01/31 09:35:33;;;;;;;12.15;0.85;;;;;;;4.55;100.00;101491.84;5050662;28;20032;-50
2022/01/31 09:37:59;;;;;;;11.95;2.13;;;;;;;4.57;100.00;101510.94;5053785;28;20690;-50
2022/01/31 09:40:25;;;;;;;10.45;1.98;;;;;;;4.65;100.00;101497.19;5050827;28;20075;-53
2022/01/31 09:43:22;;;;;;;3.63;0.43;;;;;;;4.75;100.00;101505.94;5044252;28;20099;-53
2022/01/31 09:48:43;;;;;;;7.32;0.93;;;;;;;4.83;100.00;101514.03;5039619;28;20385;-48
2022/01/31 09:51:10;;;;;;;13.82;1.02;;;;;;;4.86;100.00;101521.66;5042554;28;20651;-47
2022/01/31 09:53:40;;;;;;;3.05;0.63;;;;;;;4.84;100.00;101510.44;5033062;28;20021;-46
2022/01/31 09:56:09;;;;;;;6.65;0.50;;;;;;;4.85;100.00;101524.41;5044170;28;20086;-51
2022/01/31 09:58:35;;;;;;;11.85;2.78;;;;;;;4.90;100.00;101522.22;5040322;28;20037;-50
2022/01/31 10:01:05;;;;;;;11.15;1.10;;;;;;;4.92;100.00;101536.91;5030876;28;20494;-48
2022/01/31 10:03:30;;;;;;;7.68;1.63;;;;;;;4.95;100.00;101536.63;5032767;28;20040;-55
2022/01/31 10:05:57;;;;;;;8.30;1.33;;;;;;;4.97;100.00;101541.78;5045475;28;20037;-50
2022/01/31 10:08:28;;;;;;;6.07;1.15;;;;;;;5.05;100.00;101563.00;5054417;28;20043;-52
2022/01/31 10:11:00;;;;;;;11.45;1.48;;;;;;;5.11;100.00;101559.00;5029784;28;20037;-50
2022/01/31 10:16:27;;;;;;;12.98;2.05;;;;;;;5.10;100.00;101570.50;5032388;28;20116;-49
2022/01/31 10:19:08;;;;;;;6.53;0.88;;;;;;;5.12;100.00;101569.41;5049750;28;20052;-51
2022/01/31 10:21:55;;;;;;;10.02;0.73;;;;;;;5.13;100.00;101564.97;5024808;28;20183;-50
2022/01/31 10:24:23;;;;;;;14.07;2.70;;;;;;;5.19;100.00;101569.72;5033867;28;20199;-52
2022/01/31 10:26:48;;;;;;;17.77;1.27;;;;;;;5.23;100.00;101574.59;5049596;28;20111;-50
2022/01/31 10:29:19;;;;;;;8.23;1.27;;;;;;;5.28;100.00;101576.00;5041913;28;20473;-54
2022/01/31 10:32:04;;;;;;;9.02;0.82;;;;;;;5.30;100.00;101568.81;5046300;28;20104;-46
2022/01/31 10:34:32;;;;;;;16.88;1.33;;;;;;;5.31;100.00;101581.81;5036471;28;20030;-54
2022/01/31 10:37:04;;;;;;;9.80;1.00;;;;;;;5.37;100.00;101564.69;5034073;28;20238;-50
2022/01/31 10:53:39;;;;;;;;;;;;;;;5.73;100.00;101620.38;5038130;28;20029;-48
2022/01/31 10:56:04;;;;;;;6.80;0.98;;;;;;;5.77;100.00;101653.41;5048439;28;19929;-53
2022/01/31 10:58:30;;;;;;;3.25;0.32;;;;;;;5.82;100.00;101630.97;5028928;28;20442;-51
2022/01/31 11:01:11;;;;;;;5.85;1.08;;;;;;;5.93;100.00;101634.47;5044498;28;20041;-48
2022/01/31 11:03:36;;;;;;;1.45;0.47;;;;;;;6.02;100.00;101652.16;5023384;28;20529;-53
2022/01/31 11:06:08;;;;;;;7.90;0.30;;;;;;;6.05;100.00;101631.66;5048822;28;20044;-49
2022/01/31 11:08:34;;;;;;;5.47;0.32;;;;;;;6.07;100.00;101628.91;5033712;28;20067;-58
2022/01/31 11:11:00;;;;;;;3.70;0.82;;;;;;;6.12;100.00;101637.22;5045551;28;20041;-60
2022/01/31 11:13:26;;;;;;;6.90;0.30;;;;;;;6.18;100.00;101651.66;5048377;28;20445;-50
2022/01/31 11:15:55;;;;;;;5.70;1.02;;;;;;;6.25;100.00;101658.06;5038870;28;20363;-57
2022/01/31 11:18:22;;;;;;;7.28;0.60;;;;;;;6.26;100.00;101642.09;5043096;28;20362;-56
2022/01/31 11:20:52;;;;;;;4.63;0.35;;;;;;;6.30;100.00;101646.16;5035966;28;20036;-48
2022/01/31 11:23:21;;;;;;;2.75;1.52;;;;;;;6.34;100.00;101646.69;5045933;28;20029;-52
2022/01/31 11:25:53;;;;;;;7.75;0.57;;;;;;;6.37;100.00;101651.69;5045364;28;20033;-53
2022/01/31 11:28:19;;;;;;;3.63;0.75;;;;;;;6.39;100.00;101638.41;5029465;28;20155;-48
2022/01/31 11:30:46;;;;;;;7.43;0.85;;;;;;;6.44;100.00;101662.53;5042147;28;20041;-57
2022/01/31 11:33:12;;;;;;;3.20;0.30;;;;;;;6.52;100.00;101660.06;5042299;28;20063;-47
2022/01/31 11:35:38;;;;;;;4.50;0.30;;;;;;;6.60;100.00;101665.47;5044586;28;20029;-51
2022/01/31 11:38:03;;;;;;;2.17;0.20;;;;;;;6.65;100.00;101660.63;5047245;28;20033;-54
2022/01/31 11:40:29;;;;;;;2.13;0.30;;;;;;;6.67;95.29;101660.50;5046400;28;20485;-59
2022/01/31 11:42:56;;;;;;;6.03;0.88;;;;;;;6.74;100.00;101659.81;5051994;28;20035;-54
2022/01/31 11:45:28;;;;;;;1.42;0.15;;;;;;;6.73;87.61;101681.88;5049513;28;20108;-56
2022/01/31 11:47:57;;;;;;;1.80;0.45;;;;;;;6.66;85.39;101678.13;5043278;28;20132;-53
2022/01/31 11:50:24;;;;;;;8.65;2.10;;;;;;;6.75;94.63;101672.03;5042546;28;20116;-53